createdAt,value
2023-03-10T00:04:11.201Z,80.81
2023-03-10T00:09:13.145Z,80.45
2023-03-10T00:14:15.185Z,80.58
2023-03-10T00:19:17.074Z,79.52
2023-03-10T00:24:18.970Z,79.40
2023-03-10T00:29:21.061Z,79.27
2023-03-10T00:34:23.041Z,78.65
2023-03-10T00:39:25.085Z,78.91
2023-03-10T00:44:26.965Z,78.29
2023-03-10T00:49:28.853Z,78.45
2023-03-10T00:54:30.773Z,77.88
2023-03-10T00:59:47.834Z,78.40
2023-03-10T01:04:51.742Z,77.70
2023-03-10T01:09:53.665Z,77.40
2023-03-10T01:14:55.576Z,77.51
2023-03-10T01:19:57.578Z,76.98
2023-03-10T01:24:59.479Z,76.66
2023-03-10T01:30:01.369Z,76.16
2023-03-10T01:35:05.814Z,76.02
2023-03-10T01:40:08.496Z,76.12
2023-03-10T01:45:11.343Z,75.75
2023-03-10T01:50:15.390Z,76.06
2023-03-10T01:55:21.421Z,75.60
2023-03-10T02:00:26.544Z,75.52
2023-03-10T02:05:28.587Z,75.01
2023-03-10T02:10:30.595Z,75.23
2023-03-10T02:15:33.427Z,75.08
2023-03-10T02:20:41.370Z,74.79
2023-03-10T02:25:49.228Z,73.84
2023-03-10T02:30:51.154Z,74.26
2023-03-10T02:35:53.207Z,74.09
2023-03-10T02:40:55.219Z,72.47
2023-03-10T02:45:59.253Z,73.33
2023-03-10T02:51:02.006Z,73.26
2023-03-10T02:56:04.196Z,73.21
2023-03-10T03:01:06.356Z,72.74
2023-03-10T03:06:08.649Z,71.69
2023-03-10T03:11:10.545Z,71.27
2023-03-10T03:16:12.546Z,71.79
2023-03-10T03:21:14.704Z,70.95
2023-03-10T03:26:18.459Z,70.92
2023-03-10T03:31:22.485Z,70.80
2023-03-10T03:36:24.393Z,70.99
2023-03-10T03:41:26.431Z,70.75
2023-03-10T03:46:28.459Z,71.32
2023-03-10T03:51:30.481Z,71.81
2023-03-10T03:56:32.473Z,71.97
2023-03-10T04:01:34.402Z,72.07
2023-03-10T04:06:36.361Z,72.60
2023-03-10T04:11:38.291Z,72.96
2023-03-10T04:16:41.082Z,73.30
2023-03-10T04:21:43.360Z,72.93
2023-03-10T04:26:45.744Z,73.51
2023-03-10T04:32:02.703Z,72.43
2023-03-10T04:37:06.632Z,72.69
2023-03-10T04:42:08.427Z,72.89
2023-03-10T04:47:10.266Z,72.20
2023-03-10T04:52:12.174Z,72.09
2023-03-10T04:57:13.985Z,71.96
2023-03-10T05:02:15.909Z,72.17
2023-03-10T05:07:17.786Z,71.53
2023-03-10T05:12:19.769Z,72.12
2023-03-10T05:17:21.655Z,71.79
2023-03-10T05:22:23.680Z,72.22
2023-03-10T05:27:25.608Z,72.01
2023-03-10T05:32:27.552Z,71.83
2023-03-10T05:37:29.378Z,70.50
2023-03-10T05:42:31.353Z,69.54
2023-03-10T05:47:33.287Z,70.14
2023-03-10T05:52:39.144Z,70.23
2023-03-10T05:57:41.038Z,69.72
2023-03-10T06:02:42.958Z,69.96
2023-03-10T06:07:44.838Z,69.34
2023-03-10T06:12:46.695Z,68.30
2023-03-10T06:17:48.501Z,67.53
2023-03-10T06:22:51.436Z,68.59
2023-03-10T06:27:53.293Z,68.00
2023-03-10T06:32:55.141Z,66.97
2023-03-10T06:37:57.065Z,66.28
2023-03-10T06:42:58.941Z,65.61
2023-03-10T06:48:00.846Z,64.40
2023-03-10T06:53:02.692Z,64.22
2023-03-10T06:58:04.563Z,63.83
2023-03-10T07:03:06.407Z,62.44
2023-03-10T07:08:08.349Z,59.74
2023-03-10T07:13:10.687Z,58.92
2023-03-10T07:18:13.097Z,56.87
2023-03-10T07:23:15.106Z,56.98
2023-03-10T07:28:16.982Z,56.16
2023-03-10T07:33:18.886Z,58.44
2023-03-10T07:38:20.850Z,51.35
2023-03-10T07:43:22.754Z,42.96
2023-03-10T07:48:24.682Z,47.57
2023-03-10T07:53:26.714Z,50.04
2023-03-10T07:58:28.663Z,51.97
2023-03-10T08:03:30.594Z,52.16
2023-03-10T08:08:32.514Z,51.05
2023-03-10T08:13:34.366Z,50.81
2023-03-10T08:18:36.673Z,51.38
2023-03-10T08:23:39.292Z,52.00
2023-03-10T08:28:41.115Z,51.22
2023-03-10T08:33:43.370Z,52.59
2023-03-10T08:38:45.534Z,53.38
2023-03-10T08:43:49.255Z,54.26
2023-03-10T08:48:51.607Z,54.35
2023-03-10T08:53:53.546Z,53.34
2023-03-10T08:58:55.542Z,52.85
2023-03-10T09:03:57.410Z,52.05
2023-03-10T09:08:59.307Z,51.57
2023-03-10T09:14:02.033Z,50.19
2023-03-10T09:19:03.944Z,50.52
2023-03-10T09:24:06.012Z,50.56
2023-03-10T09:29:07.895Z,50.64
2023-03-10T09:34:09.848Z,51.20
2023-03-10T09:39:11.638Z,50.39
2023-03-10T09:44:29.088Z,51.89
2023-03-10T09:49:35.957Z,50.99
2023-03-10T09:54:44.480Z,52.19
2023-03-10T09:59:46.371Z,51.70
2023-03-10T10:04:48.449Z,51.70
2023-03-10T10:10:04.544Z,50.88
2023-03-10T10:15:24.877Z,51.40
2023-03-10T10:20:33.591Z,52.34
2023-03-10T10:25:37.086Z,52.70
2023-03-10T10:30:39.607Z,52.16
2023-03-10T10:35:46.663Z,51.28
2023-03-10T10:41:05.788Z,50.21
2023-03-10T10:46:09.135Z,50.55
2023-03-10T10:51:33.416Z,51.16
2023-03-10T10:56:35.326Z,51.02
2023-03-10T11:01:56.920Z,50.18
2023-03-10T11:07:15.657Z,51.45
2023-03-10T11:12:25.843Z,51.79
2023-03-10T11:17:39.798Z,52.31
2023-03-10T11:22:46.624Z,52.58
2023-03-10T11:27:49.792Z,52.47
2023-03-10T11:33:00.654Z,52.17
2023-03-10T11:38:23.991Z,51.88
2023-03-10T11:43:47.003Z,51.51
2023-03-10T11:49:07.403Z,50.94
2023-03-10T11:54:27.040Z,50.51
2023-03-10T11:59:29.832Z,49.74
2023-03-10T12:04:37.514Z,49.73
2023-03-10T12:09:40.748Z,50.80
2023-03-10T12:14:43.638Z,50.86
2023-03-10T12:20:10.465Z,50.62
2023-03-10T12:25:30.373Z,49.99
2023-03-10T12:31:10.408Z,49.46
2023-03-10T12:36:27.469Z,50.02
2023-03-10T12:41:49.532Z,48.82
2023-03-10T12:47:15.611Z,48.12
2023-03-10T12:52:36.565Z,47.35
2023-03-10T12:57:41.406Z,47.09
2023-03-10T13:02:52.591Z,47.00
2023-03-10T13:07:58.902Z,47.16
2023-03-10T13:13:05.976Z,46.78
2023-03-10T13:18:16.289Z,46.57
2023-03-10T13:23:25.017Z,47.45
2023-03-10T13:28:28.784Z,46.81
2023-03-10T13:33:32.216Z,46.34
2023-03-10T13:38:42.504Z,46.38
2023-03-10T13:43:45.744Z,47.12
2023-03-10T13:48:47.822Z,47.65
2023-03-10T13:53:51.987Z,47.66
2023-03-10T13:58:55.798Z,47.29
2023-03-10T14:03:58.458Z,46.45
2023-03-10T14:09:18.238Z,47.19
2023-03-10T14:14:30.057Z,48.44
2023-03-10T14:19:45.209Z,47.88
2023-03-10T14:24:47.106Z,47.56
2023-03-10T14:29:50.786Z,47.71
2023-03-10T14:34:52.862Z,48.28
2023-03-10T14:39:55.018Z,48.43
2023-03-10T14:44:58.969Z,48.36
2023-03-10T14:50:01.465Z,48.16
2023-03-10T14:55:07.098Z,48.95
2023-03-10T15:00:19.880Z,48.58
2023-03-10T15:05:25.951Z,49.46
2023-03-10T15:10:29.515Z,49.56
2023-03-10T15:15:43.435Z,50.51
2023-03-10T15:20:45.556Z,50.36
2023-03-10T15:25:47.634Z,51.30
2023-03-10T15:30:49.637Z,51.18
2023-03-10T15:35:52.225Z,51.52
2023-03-10T15:40:53.910Z,51.36
2023-03-10T15:45:56.044Z,51.72
2023-03-10T15:50:58.580Z,51.30
2023-03-10T15:56:05.747Z,51.39
2023-03-10T16:01:11.939Z,51.77
2023-03-10T16:06:13.939Z,51.78
2023-03-10T16:11:18.010Z,52.44
2023-03-10T16:16:20.428Z,52.66
2023-03-10T16:21:22.335Z,52.04
2023-03-10T16:26:24.295Z,51.78
2023-03-10T16:31:26.511Z,52.25
2023-03-10T16:36:29.351Z,52.26
2023-03-10T16:41:31.193Z,52.19
2023-03-10T16:46:33.766Z,52.35
2023-03-10T16:51:36.566Z,53.20
2023-03-10T16:56:48.865Z,52.93
2023-03-10T17:01:50.865Z,53.04
2023-03-10T17:06:52.819Z,53.25
2023-03-10T17:11:55.602Z,53.32
2023-03-10T17:16:58.334Z,53.49
2023-03-10T17:22:00.321Z,53.40
2023-03-10T17:27:02.361Z,53.58
2023-03-10T17:32:05.855Z,52.94
2023-03-10T17:37:07.786Z,53.33
2023-03-10T17:42:09.734Z,53.08
2023-03-10T17:47:11.596Z,53.05
2023-03-10T17:52:13.559Z,52.43
2023-03-10T17:57:16.783Z,52.70
2023-03-10T18:02:18.840Z,52.37
2023-03-10T18:07:20.851Z,51.99
2023-03-10T18:12:22.711Z,52.05
2023-03-10T18:17:24.562Z,52.25
2023-03-10T18:22:26.404Z,51.97
2023-03-10T18:27:29.187Z,51.47
2023-03-10T18:32:32.263Z,51.67
2023-03-10T18:37:34.193Z,51.31
2023-03-10T18:42:36.094Z,51.42
2023-03-10T18:47:37.980Z,51.31
2023-03-10T18:52:40.786Z,51.31
2023-03-10T18:57:45.189Z,51.14
2023-03-10T19:02:47.129Z,51.50
2023-03-10T19:07:49.127Z,51.44
2023-03-10T19:12:51.158Z,51.21
2023-03-10T19:17:53.295Z,51.75
2023-03-10T19:22:55.338Z,51.42
2023-03-10T19:27:57.231Z,51.26
2023-03-10T19:32:59.282Z,51.02
2023-03-10T19:38:01.244Z,50.88
2023-03-10T19:43:03.389Z,50.64
2023-03-10T19:48:05.541Z,50.95
2023-03-10T19:53:07.498Z,51.92
2023-03-10T19:58:09.383Z,51.66
2023-03-10T20:03:11.355Z,51.65
2023-03-10T20:08:13.428Z,52.63
2023-03-10T20:13:15.320Z,51.75
2023-03-10T20:18:17.221Z,52.77
2023-03-10T20:23:19.141Z,52.60
2023-03-10T20:28:21.075Z,52.72
2023-03-10T20:33:22.990Z,53.13
2023-03-10T20:38:24.879Z,52.62
2023-03-10T20:43:26.851Z,52.50
2023-03-10T20:48:28.777Z,52.46
2023-03-10T20:53:31.789Z,52.82
2023-03-10T20:58:33.763Z,52.93
2023-03-10T21:03:35.733Z,53.47
2023-03-10T21:08:37.742Z,54.23
2023-03-10T21:13:39.720Z,54.51
2023-03-10T21:18:41.761Z,55.27
2023-03-10T21:23:43.704Z,55.30
2023-03-10T21:28:45.824Z,56.28
2023-03-10T21:33:47.894Z,55.72
2023-03-10T21:38:50.340Z,57.20
2023-03-10T21:43:56.551Z,58.60
2023-03-10T21:48:58.512Z,59.76
2023-03-10T21:54:00.639Z,59.79
2023-03-10T21:59:02.583Z,59.60
2023-03-10T22:04:04.581Z,59.18
2023-03-10T22:09:06.447Z,59.79
2023-03-10T22:14:08.368Z,58.84
2023-03-10T22:19:10.347Z,59.52
2023-03-10T22:24:13.882Z,59.60
2023-03-10T22:29:15.904Z,59.04
2023-03-10T22:34:17.777Z,59.58
2023-03-10T22:39:19.711Z,59.39
2023-03-10T22:44:21.599Z,60.05
2023-03-10T22:49:23.526Z,60.31
2023-03-10T22:54:25.555Z,60.25
2023-03-10T22:59:27.458Z,60.11
2023-03-10T23:04:32.588Z,61.24
2023-03-10T23:09:34.796Z,61.52
2023-03-10T23:14:36.830Z,61.21
2023-03-10T23:19:38.828Z,61.63
2023-03-10T23:24:40.693Z,62.24
2023-03-10T23:29:42.785Z,62.20
2023-03-10T23:34:44.883Z,62.51
2023-03-10T23:39:46.854Z,62.76
2023-03-10T23:44:48.837Z,63.34
2023-03-10T23:49:51.057Z,63.40
2023-03-10T23:54:53.806Z,63.60
2023-03-10T23:59:55.994Z,64.26
